sensor_id;sensor_type;location;lat;lon;timestamp;temperature;humidity
79356;SHT31;68825;51.978;5.654;2023-07-09T00:02:25;26.1;60.1
79356;SHT31;68825;51.978;5.654;2023-07-09T00:04:55;26.0;60.4
79356;SHT31;68825;51.978;5.654;2023-07-09T00:07:27;26.0;60.2
79356;SHT31;68825;51.978;5.654;2023-07-09T00:09:57;26.0;60.3
79356;SHT31;68825;51.978;5.654;2023-07-09T00:12:26;26.0;60.5
79356;SHT31;68825;51.978;5.654;2023-07-09T00:14:57;25.9;60.2
79356;SHT31;68825;51.978;5.654;2023-07-09T00:17:30;25.9;60.3
79356;SHT31;68825;51.978;5.654;2023-07-09T00:20:02;25.9;60.4
79356;SHT31;68825;51.978;5.654;2023-07-09T00:22:37;25.9;60.5
79356;SHT31;68825;51.978;5.654;2023-07-09T00:25:09;25.9;60.5
79356;SHT31;68825;51.978;5.654;2023-07-09T00:27:41;25.8;60.7
79356;SHT31;68825;51.978;5.654;2023-07-09T00:30:17;25.8;61.0
79356;SHT31;68825;51.978;5.654;2023-07-09T00:32:48;25.8;61.2
79356;SHT31;68825;51.978;5.654;2023-07-09T00:35:19;25.8;61.2
79356;SHT31;68825;51.978;5.654;2023-07-09T00:37:49;25.8;61.0
79356;SHT31;68825;51.978;5.654;2023-07-09T00:40:21;25.8;61.0
79356;SHT31;68825;51.978;5.654;2023-07-09T00:42:53;25.7;61.2
79356;SHT31;68825;51.978;5.654;2023-07-09T00:45:25;25.7;61.4
79356;SHT31;68825;51.978;5.654;2023-07-09T00:47:56;25.7;61.6
79356;SHT31;68825;51.978;5.654;2023-07-09T00:50:37;25.7;61.3
79356;SHT31;68825;51.978;5.654;2023-07-09T00:53:16;25.6;61.3
79356;SHT31;68825;51.978;5.654;2023-07-09T00:55:50;25.6;61.4
79356;SHT31;68825;51.978;5.654;2023-07-09T00:58:22;25.6;61.8
79356;SHT31;68825;51.978;5.654;2023-07-09T01:01:02;25.6;61.3
79356;SHT31;68825;51.978;5.654;2023-07-09T01:03:35;25.6;61.7
79356;SHT31;68825;51.978;5.654;2023-07-09T01:06:07;25.5;61.5
79356;SHT31;68825;51.978;5.654;2023-07-09T01:08:39;25.5;61.6
79356;SHT31;68825;51.978;5.654;2023-07-09T01:11:16;25.5;61.8
79356;SHT31;68825;51.978;5.654;2023-07-09T01:13:47;25.5;61.5
79356;SHT31;68825;51.978;5.654;2023-07-09T01:16:17;25.5;61.9
79356;SHT31;68825;51.978;5.654;2023-07-09T01:18:47;25.4;62.2
79356;SHT31;68825;51.978;5.654;2023-07-09T01:21:16;25.4;62.0
79356;SHT31;68825;51.978;5.654;2023-07-09T01:23:46;25.4;62.2
79356;SHT31;68825;51.978;5.654;2023-07-09T01:26:18;25.4;61.8
79356;SHT31;68825;51.978;5.654;2023-07-09T01:28:47;25.4;61.8
79356;SHT31;68825;51.978;5.654;2023-07-09T01:31:16;25.3;62.1
79356;SHT31;68825;51.978;5.654;2023-07-09T01:33:47;25.3;61.9
79356;SHT31;68825;51.978;5.654;2023-07-09T01:36:18;25.3;62.3
79356;SHT31;68825;51.978;5.654;2023-07-09T01:38:50;25.2;62.3
79356;SHT31;68825;51.978;5.654;2023-07-09T01:41:19;25.2;61.8
79356;SHT31;68825;51.978;5.654;2023-07-09T01:43:48;25.2;62.2
79356;SHT31;68825;51.978;5.654;2023-07-09T01:46:17;25.1;62.1
79356;SHT31;68825;51.978;5.654;2023-07-09T01:48:47;25.1;62.4
79356;SHT31;68825;51.978;5.654;2023-07-09T01:51:19;25.1;62.0
79356;SHT31;68825;51.978;5.654;2023-07-09T01:53:49;25.0;62.7
79356;SHT31;68825;51.978;5.654;2023-07-09T01:56:18;25.0;62.4
79356;SHT31;68825;51.978;5.654;2023-07-09T01:58:46;25.0;62.4
79356;SHT31;68825;51.978;5.654;2023-07-09T02:01:15;24.9;62.8
79356;SHT31;68825;51.978;5.654;2023-07-09T02:03:46;24.9;62.4
79356;SHT31;68825;51.978;5.654;2023-07-09T02:06:14;24.9;62.8
79356;SHT31;68825;51.978;5.654;2023-07-09T02:08:46;24.8;63.1
79356;SHT31;68825;51.978;5.654;2023-07-09T02:11:15;24.8;63.0
79356;SHT31;68825;51.978;5.654;2023-07-09T02:13:43;24.8;63.3
79356;SHT31;68825;51.978;5.654;2023-07-09T02:16:12;24.7;63.3
79356;SHT31;68825;51.978;5.654;2023-07-09T02:18:42;24.7;63.3
79356;SHT31;68825;51.978;5.654;2023-07-09T02:21:11;24.7;63.8
79356;SHT31;68825;51.978;5.654;2023-07-09T02:23:39;24.6;63.6
79356;SHT31;68825;51.978;5.654;2023-07-09T02:26:08;24.6;64.2
79356;SHT31;68825;51.978;5.654;2023-07-09T02:28:37;24.6;64.0
79356;SHT31;68825;51.978;5.654;2023-07-09T02:31:05;24.6;63.9
79356;SHT31;68825;51.978;5.654;2023-07-09T02:33:34;24.5;64.1
79356;SHT31;68825;51.978;5.654;2023-07-09T02:36:03;24.5;64.2
79356;SHT31;68825;51.978;5.654;2023-07-09T02:38:33;24.5;64.6
79356;SHT31;68825;51.978;5.654;2023-07-09T02:41:01;24.4;64.6
79356;SHT31;68825;51.978;5.654;2023-07-09T02:43:30;24.4;64.5
79356;SHT31;68825;51.978;5.654;2023-07-09T02:45:59;24.4;64.4
79356;SHT31;68825;51.978;5.654;2023-07-09T02:48:27;24.4;64.2
79356;SHT31;68825;51.978;5.654;2023-07-09T02:50:58;24.3;64.5
79356;SHT31;68825;51.978;5.654;2023-07-09T02:53:27;24.3;64.6
79356;SHT31;68825;51.978;5.654;2023-07-09T02:55:56;24.3;64.5
79356;SHT31;68825;51.978;5.654;2023-07-09T02:58:24;24.3;64.3
79356;SHT31;68825;51.978;5.654;2023-07-09T03:00:55;24.3;64.7
79356;SHT31;68825;51.978;5.654;2023-07-09T03:03:24;24.3;64.8
79356;SHT31;68825;51.978;5.654;2023-07-09T03:05:55;24.3;64.6
79356;SHT31;68825;51.978;5.654;2023-07-09T03:08:24;24.2;64.2
79356;SHT31;68825;51.978;5.654;2023-07-09T03:10:53;24.2;64.2
79356;SHT31;68825;51.978;5.654;2023-07-09T03:13:21;24.2;64.6
79356;SHT31;68825;51.978;5.654;2023-07-09T03:15:57;24.2;64.5
79356;SHT31;68825;51.978;5.654;2023-07-09T03:18:26;24.2;64.3
79356;SHT31;68825;51.978;5.654;2023-07-09T03:20:54;24.2;64.7
79356;SHT31;68825;51.978;5.654;2023-07-09T03:23:23;24.2;64.6
79356;SHT31;68825;51.978;5.654;2023-07-09T03:25:52;24.2;64.7
79356;SHT31;68825;51.978;5.654;2023-07-09T03:28:21;24.2;64.7
79356;SHT31;68825;51.978;5.654;2023-07-09T03:30:53;24.2;65.0
79356;SHT31;68825;51.978;5.654;2023-07-09T03:33:23;24.2;64.8
79356;SHT31;68825;51.978;5.654;2023-07-09T03:35:52;24.2;64.7
79356;SHT31;68825;51.978;5.654;2023-07-09T03:38:21;24.2;64.9
79356;SHT31;68825;51.978;5.654;2023-07-09T03:40:52;24.2;65.3
79356;SHT31;68825;51.978;5.654;2023-07-09T03:43:22;24.2;65.2
79356;SHT31;68825;51.978;5.654;2023-07-09T03:45:51;24.1;65.1
79356;SHT31;68825;51.978;5.654;2023-07-09T03:48:20;24.1;65.4
79356;SHT31;68825;51.978;5.654;2023-07-09T03:50:49;24.1;65.4
79356;SHT31;68825;51.978;5.654;2023-07-09T03:53:18;24.1;65.2
79356;SHT31;68825;51.978;5.654;2023-07-09T03:55:52;24.1;65.7
79356;SHT31;68825;51.978;5.654;2023-07-09T03:58:21;24.1;65.6
79356;SHT31;68825;51.978;5.654;2023-07-09T04:00:50;24.1;65.6
79356;SHT31;68825;51.978;5.654;2023-07-09T04:03:18;24.1;65.4
79356;SHT31;68825;51.978;5.654;2023-07-09T04:05:47;24.1;65.6
79356;SHT31;68825;51.978;5.654;2023-07-09T04:08:16;24.1;65.9
79356;SHT31;68825;51.978;5.654;2023-07-09T04:10:44;24.1;65.7
79356;SHT31;68825;51.978;5.654;2023-07-09T04:13:15;24.1;65.6
79356;SHT31;68825;51.978;5.654;2023-07-09T04:15:43;24.2;65.3
79356;SHT31;68825;51.978;5.654;2023-07-09T04:18:12;24.2;65.1
79356;SHT31;68825;51.978;5.654;2023-07-09T04:20:41;24.2;65.7
79356;SHT31;68825;51.978;5.654;2023-07-09T04:23:13;24.2;66.1
79356;SHT31;68825;51.978;5.654;2023-07-09T04:25:42;24.2;66.2
79356;SHT31;68825;51.978;5.654;2023-07-09T04:28:10;24.2;66.2
79356;SHT31;68825;51.978;5.654;2023-07-09T04:30:47;24.2;66.3
79356;SHT31;68825;51.978;5.654;2023-07-09T04:33:18;24.2;66.2
79356;SHT31;68825;51.978;5.654;2023-07-09T04:35:48;24.2;66.1
79356;SHT31;68825;51.978;5.654;2023-07-09T04:38:17;24.3;66.7
79356;SHT31;68825;51.978;5.654;2023-07-09T04:40:46;24.3;67.0
79356;SHT31;68825;51.978;5.654;2023-07-09T04:43:15;24.3;67.2
79356;SHT31;68825;51.978;5.654;2023-07-09T04:45:44;24.3;66.5
79356;SHT31;68825;51.978;5.654;2023-07-09T04:48:12;24.3;66.4
79356;SHT31;68825;51.978;5.654;2023-07-09T04:50:41;24.3;66.0
79356;SHT31;68825;51.978;5.654;2023-07-09T04:53:10;24.3;66.2
79356;SHT31;68825;51.978;5.654;2023-07-09T04:55:40;24.3;67.1
79356;SHT31;68825;51.978;5.654;2023-07-09T04:58:09;24.3;67.3
79356;SHT31;68825;51.978;5.654;2023-07-09T05:00:37;24.3;67.2
79356;SHT31;68825;51.978;5.654;2023-07-09T05:03:06;24.4;67.2
79356;SHT31;68825;51.978;5.654;2023-07-09T05:05:34;24.4;67.3
79356;SHT31;68825;51.978;5.654;2023-07-09T05:08:03;24.4;67.2
79356;SHT31;68825;51.978;5.654;2023-07-09T05:10:32;24.4;68.1
79356;SHT31;68825;51.978;5.654;2023-07-09T05:13:00;24.4;68.5
79356;SHT31;68825;51.978;5.654;2023-07-09T05:15:29;24.5;68.7
79356;SHT31;68825;51.978;5.654;2023-07-09T05:17:57;24.5;68.7
79356;SHT31;68825;51.978;5.654;2023-07-09T05:20:28;24.5;68.9
79356;SHT31;68825;51.978;5.654;2023-07-09T05:22:57;24.6;68.9
79356;SHT31;68825;51.978;5.654;2023-07-09T05:25:25;24.7;68.5
79356;SHT31;68825;51.978;5.654;2023-07-09T05:27:54;24.8;67.3
79356;SHT31;68825;51.978;5.654;2023-07-09T05:30:23;24.9;66.5
79356;SHT31;68825;51.978;5.654;2023-07-09T05:32:52;25.0;66.2
79356;SHT31;68825;51.978;5.654;2023-07-09T05:35:24;25.1;65.2
79356;SHT31;68825;51.978;5.654;2023-07-09T05:37:54;25.2;63.4
79356;SHT31;68825;51.978;5.654;2023-07-09T05:40:22;25.4;64.2
79356;SHT31;68825;51.978;5.654;2023-07-09T05:42:51;25.5;63.2
79356;SHT31;68825;51.978;5.654;2023-07-09T05:45:19;25.6;64.7
79356;SHT31;68825;51.978;5.654;2023-07-09T05:47:48;25.7;63.7
79356;SHT31;68825;51.978;5.654;2023-07-09T05:50:17;25.9;63.8
79356;SHT31;68825;51.978;5.654;2023-07-09T05:52:45;26.0;61.8
79356;SHT31;68825;51.978;5.654;2023-07-09T05:55:14;26.2;61.1
79356;SHT31;68825;51.978;5.654;2023-07-09T05:57:43;26.3;61.1
79356;SHT31;68825;51.978;5.654;2023-07-09T06:00:12;26.4;60.5
79356;SHT31;68825;51.978;5.654;2023-07-09T06:02:43;26.6;60.0
79356;SHT31;68825;51.978;5.654;2023-07-09T06:05:11;26.7;60.8
79356;SHT31;68825;51.978;5.654;2023-07-09T06:07:40;26.8;58.8
79356;SHT31;68825;51.978;5.654;2023-07-09T06:10:09;26.9;57.8
79356;SHT31;68825;51.978;5.654;2023-07-09T06:12:38;26.9;58.1
79356;SHT31;68825;51.978;5.654;2023-07-09T06:15:07;27.0;58.2
79356;SHT31;68825;51.978;5.654;2023-07-09T06:17:36;27.0;57.0
79356;SHT31;68825;51.978;5.654;2023-07-09T06:20:05;27.1;57.6
79356;SHT31;68825;51.978;5.654;2023-07-09T06:22:34;27.1;57.8
79356;SHT31;68825;51.978;5.654;2023-07-09T06:25:03;27.1;57.9
79356;SHT31;68825;51.978;5.654;2023-07-09T06:27:32;27.2;57.8
79356;SHT31;68825;51.978;5.654;2023-07-09T06:30:00;27.2;57.9
79356;SHT31;68825;51.978;5.654;2023-07-09T06:32:29;27.2;57.8
79356;SHT31;68825;51.978;5.654;2023-07-09T06:34:58;27.3;57.7
79356;SHT31;68825;51.978;5.654;2023-07-09T06:37:26;27.3;58.2
79356;SHT31;68825;51.978;5.654;2023-07-09T06:39:55;27.3;58.2
79356;SHT31;68825;51.978;5.654;2023-07-09T06:42:24;27.3;58.2
79356;SHT31;68825;51.978;5.654;2023-07-09T06:44:52;27.3;58.8
79356;SHT31;68825;51.978;5.654;2023-07-09T06:47:21;27.4;59.4
79356;SHT31;68825;51.978;5.654;2023-07-09T06:49:49;27.4;59.4
79356;SHT31;68825;51.978;5.654;2023-07-09T06:52:18;27.4;59.6
79356;SHT31;68825;51.978;5.654;2023-07-09T06:54:47;27.5;59.6
79356;SHT31;68825;51.978;5.654;2023-07-09T06:57:15;27.5;59.1
79356;SHT31;68825;51.978;5.654;2023-07-09T06:59:44;27.5;59.9
79356;SHT31;68825;51.978;5.654;2023-07-09T07:02:12;27.5;59.7
79356;SHT31;68825;51.978;5.654;2023-07-09T07:04:41;27.6;58.8
79356;SHT31;68825;51.978;5.654;2023-07-09T07:07:09;27.6;59.2
79356;SHT31;68825;51.978;5.654;2023-07-09T07:09:38;27.6;59.0
79356;SHT31;68825;51.978;5.654;2023-07-09T07:12:08;27.7;58.8
79356;SHT31;68825;51.978;5.654;2023-07-09T07:14:37;27.7;58.4
79356;SHT31;68825;51.978;5.654;2023-07-09T07:17:06;27.8;58.9
79356;SHT31;68825;51.978;5.654;2023-07-09T07:19:36;27.9;58.7
79356;SHT31;68825;51.978;5.654;2023-07-09T07:22:05;27.9;58.5
79356;SHT31;68825;51.978;5.654;2023-07-09T07:24:35;28.0;58.3
79356;SHT31;68825;51.978;5.654;2023-07-09T07:27:03;28.1;57.9
79356;SHT31;68825;51.978;5.654;2023-07-09T07:29:32;28.1;57.5
79356;SHT31;68825;51.978;5.654;2023-07-09T07:32:01;28.2;57.2
79356;SHT31;68825;51.978;5.654;2023-07-09T07:34:29;28.3;56.8
79356;SHT31;68825;51.978;5.654;2023-07-09T07:36:58;28.3;57.3
79356;SHT31;68825;51.978;5.654;2023-07-09T07:39:27;28.4;57.3
79356;SHT31;68825;51.978;5.654;2023-07-09T07:41:56;28.4;56.9
79356;SHT31;68825;51.978;5.654;2023-07-09T07:44:24;28.5;57.3
79356;SHT31;68825;51.978;5.654;2023-07-09T07:46:53;28.5;56.8
79356;SHT31;68825;51.978;5.654;2023-07-09T07:49:22;28.6;56.5
79356;SHT31;68825;51.978;5.654;2023-07-09T07:51:50;28.6;56.9
79356;SHT31;68825;51.978;5.654;2023-07-09T07:54:19;28.7;56.7
79356;SHT31;68825;51.978;5.654;2023-07-09T07:56:47;28.7;56.5
79356;SHT31;68825;51.978;5.654;2023-07-09T07:59:17;28.8;57.0
79356;SHT31;68825;51.978;5.654;2023-07-09T08:01:45;28.8;56.5
79356;SHT31;68825;51.978;5.654;2023-07-09T08:04:15;28.9;56.6
79356;SHT31;68825;51.978;5.654;2023-07-09T08:06:44;28.9;56.2
79356;SHT31;68825;51.978;5.654;2023-07-09T08:09:12;29.0;55.7
79356;SHT31;68825;51.978;5.654;2023-07-09T08:11:41;29.0;56.2
79356;SHT31;68825;51.978;5.654;2023-07-09T08:14:11;29.1;56.8
79356;SHT31;68825;51.978;5.654;2023-07-09T08:16:42;29.1;56.5
79356;SHT31;68825;51.978;5.654;2023-07-09T08:19:10;29.2;55.7
79356;SHT31;68825;51.978;5.654;2023-07-09T08:21:39;29.2;56.1
79356;SHT31;68825;51.978;5.654;2023-07-09T08:24:07;29.3;55.2
79356;SHT31;68825;51.978;5.654;2023-07-09T08:26:36;29.3;55.5
79356;SHT31;68825;51.978;5.654;2023-07-09T08:29:05;29.3;55.7
79356;SHT31;68825;51.978;5.654;2023-07-09T08:31:34;29.4;55.6
79356;SHT31;68825;51.978;5.654;2023-07-09T08:34:06;29.4;55.0
79356;SHT31;68825;51.978;5.654;2023-07-09T08:36:35;29.5;54.8
79356;SHT31;68825;51.978;5.654;2023-07-09T08:39:04;29.5;55.0
79356;SHT31;68825;51.978;5.654;2023-07-09T08:41:39;29.6;54.3
79356;SHT31;68825;51.978;5.654;2023-07-09T08:44:25;29.6;54.4
79356;SHT31;68825;51.978;5.654;2023-07-09T08:47:02;29.7;55.0
79356;SHT31;68825;51.978;5.654;2023-07-09T08:49:38;29.8;54.5
79356;SHT31;68825;51.978;5.654;2023-07-09T08:52:15;29.8;54.7
79356;SHT31;68825;51.978;5.654;2023-07-09T08:54:47;29.8;54.8
79356;SHT31;68825;51.978;5.654;2023-07-09T08:57:22;29.9;54.5
79356;SHT31;68825;51.978;5.654;2023-07-09T08:59:58;30.0;54.7
79356;SHT31;68825;51.978;5.654;2023-07-09T09:02:35;30.0;54.1
79356;SHT31;68825;51.978;5.654;2023-07-09T09:05:06;30.1;54.5
79356;SHT31;68825;51.978;5.654;2023-07-09T09:07:42;30.1;54.4
79356;SHT31;68825;51.978;5.654;2023-07-09T09:10:15;30.2;54.3
79356;SHT31;68825;51.978;5.654;2023-07-09T09:12:59;30.2;55.3
79356;SHT31;68825;51.978;5.654;2023-07-09T09:15:31;30.3;54.2
79356;SHT31;68825;51.978;5.654;2023-07-09T09:18:25;30.3;53.9
79356;SHT31;68825;51.978;5.654;2023-07-09T09:20:57;30.4;53.6
79356;SHT31;68825;51.978;5.654;2023-07-09T09:23:38;30.5;53.6
79356;SHT31;68825;51.978;5.654;2023-07-09T09:26:17;30.5;53.5
79356;SHT31;68825;51.978;5.654;2023-07-09T09:28:46;30.6;53.8
79356;SHT31;68825;51.978;5.654;2023-07-09T09:31:15;30.6;51.6
79356;SHT31;68825;51.978;5.654;2023-07-09T09:33:48;30.7;52.3
79356;SHT31;68825;51.978;5.654;2023-07-09T09:36:23;30.7;52.6
79356;SHT31;68825;51.978;5.654;2023-07-09T09:38:52;30.8;51.6
79356;SHT31;68825;51.978;5.654;2023-07-09T09:41:24;30.8;53.5
79356;SHT31;68825;51.978;5.654;2023-07-09T09:43:54;30.9;52.2
79356;SHT31;68825;51.978;5.654;2023-07-09T09:46:25;30.9;51.2
79356;SHT31;68825;51.978;5.654;2023-07-09T09:48:59;31.0;51.1
79356;SHT31;68825;51.978;5.654;2023-07-09T09:51:29;31.0;50.1
79356;SHT31;68825;51.978;5.654;2023-07-09T09:54:01;31.1;51.0
79356;SHT31;68825;51.978;5.654;2023-07-09T09:56:38;31.1;51.7
79356;SHT31;68825;51.978;5.654;2023-07-09T09:59:17;31.2;50.6
79356;SHT31;68825;51.978;5.654;2023-07-09T10:01:47;31.3;50.8
79356;SHT31;68825;51.978;5.654;2023-07-09T10:04:19;31.3;49.5
79356;SHT31;68825;51.978;5.654;2023-07-09T10:06:51;31.4;48.9
79356;SHT31;68825;51.978;5.654;2023-07-09T10:09:29;31.4;49.9
79356;SHT31;68825;51.978;5.654;2023-07-09T10:12:08;31.5;49.7
79356;SHT31;68825;51.978;5.654;2023-07-09T10:14:44;31.5;50.1
79356;SHT31;68825;51.978;5.654;2023-07-09T10:17:21;31.6;49.7
79356;SHT31;68825;51.978;5.654;2023-07-09T10:19:57;31.7;49.6
79356;SHT31;68825;51.978;5.654;2023-07-09T10:22:40;31.8;48.1
79356;SHT31;68825;51.978;5.654;2023-07-09T10:25:20;31.8;49.0
79356;SHT31;68825;51.978;5.654;2023-07-09T10:28:06;31.9;46.3
79356;SHT31;68825;51.978;5.654;2023-07-09T10:30:46;32.0;46.0
79356;SHT31;68825;51.978;5.654;2023-07-09T10:33:25;32.0;46.1
79356;SHT31;68825;51.978;5.654;2023-07-09T10:36:16;32.0;46.2
79356;SHT31;68825;51.978;5.654;2023-07-09T10:38:47;32.1;45.4
79356;SHT31;68825;51.978;5.654;2023-07-09T10:41:20;32.1;47.4
79356;SHT31;68825;51.978;5.654;2023-07-09T10:43:56;32.2;46.9
79356;SHT31;68825;51.978;5.654;2023-07-09T10:46:31;32.2;46.3
79356;SHT31;68825;51.978;5.654;2023-07-09T10:49:03;32.3;44.5
79356;SHT31;68825;51.978;5.654;2023-07-09T10:51:41;32.4;46.0
79356;SHT31;68825;51.978;5.654;2023-07-09T10:54:18;32.5;44.2
79356;SHT31;68825;51.978;5.654;2023-07-09T10:56:58;32.6;43.8
79356;SHT31;68825;51.978;5.654;2023-07-09T10:59:32;32.6;44.5
79356;SHT31;68825;51.978;5.654;2023-07-09T11:02:12;32.7;42.6
79356;SHT31;68825;51.978;5.654;2023-07-09T11:04:49;32.8;42.7
79356;SHT31;68825;51.978;5.654;2023-07-09T11:07:29;32.8;42.1
79356;SHT31;68825;51.978;5.654;2023-07-09T11:10:02;32.8;41.6
79356;SHT31;68825;51.978;5.654;2023-07-09T11:12:35;32.9;41.9
79356;SHT31;68825;51.978;5.654;2023-07-09T11:15:11;32.9;42.5
79356;SHT31;68825;51.978;5.654;2023-07-09T11:17:45;32.9;42.9
79356;SHT31;68825;51.978;5.654;2023-07-09T11:20:19;33.0;42.1
79356;SHT31;68825;51.978;5.654;2023-07-09T11:22:54;33.0;42.6
79356;SHT31;68825;51.978;5.654;2023-07-09T11:25:39;33.1;42.2
79356;SHT31;68825;51.978;5.654;2023-07-09T11:28:06;33.2;43.0
79356;SHT31;68825;51.978;5.654;2023-07-09T11:30:50;33.2;40.6
79356;SHT31;68825;51.978;5.654;2023-07-09T11:33:26;33.3;41.5
79356;SHT31;68825;51.978;5.654;2023-07-09T11:36:10;33.4;41.2
79356;SHT31;68825;51.978;5.654;2023-07-09T11:38:43;33.4;40.8
79356;SHT31;68825;51.978;5.654;2023-07-09T11:41:37;33.5;42.3
79356;SHT31;68825;51.978;5.654;2023-07-09T11:44:15;33.6;42.5
79356;SHT31;68825;51.978;5.654;2023-07-09T11:46:51;33.6;41.9
79356;SHT31;68825;51.978;5.654;2023-07-09T11:49:24;33.7;41.1
79356;SHT31;68825;51.978;5.654;2023-07-09T11:52:00;33.7;40.7
79356;SHT31;68825;51.978;5.654;2023-07-09T11:54:33;33.8;40.3
79356;SHT31;68825;51.978;5.654;2023-07-09T11:57:07;33.8;42.8
79356;SHT31;68825;51.978;5.654;2023-07-09T11:59:41;33.8;41.8
79356;SHT31;68825;51.978;5.654;2023-07-09T12:02:16;33.8;43.3
79356;SHT31;68825;51.978;5.654;2023-07-09T12:04:48;33.9;46.1
79356;SHT31;68825;51.978;5.654;2023-07-09T12:07:20;33.9;42.2
79356;SHT31;68825;51.978;5.654;2023-07-09T12:09:51;33.9;43.0
79356;SHT31;68825;51.978;5.654;2023-07-09T12:12:21;33.9;43.3
79356;SHT31;68825;51.978;5.654;2023-07-09T12:14:52;33.9;41.6
79356;SHT31;68825;51.978;5.654;2023-07-09T12:17:23;33.9;40.8
79356;SHT31;68825;51.978;5.654;2023-07-09T12:19:55;33.9;43.3
79356;SHT31;68825;51.978;5.654;2023-07-09T12:22:24;33.9;43.7
79356;SHT31;68825;51.978;5.654;2023-07-09T12:24:53;33.9;48.0
79356;SHT31;68825;51.978;5.654;2023-07-09T12:27:26;33.9;43.0
79356;SHT31;68825;51.978;5.654;2023-07-09T12:29:57;33.8;42.9
79356;SHT31;68825;51.978;5.654;2023-07-09T12:32:26;33.8;44.0
79356;SHT31;68825;51.978;5.654;2023-07-09T12:34:56;33.8;44.9
79356;SHT31;68825;51.978;5.654;2023-07-09T12:37:28;33.8;43.7
79356;SHT31;68825;51.978;5.654;2023-07-09T12:40:00;33.8;43.4
79356;SHT31;68825;51.978;5.654;2023-07-09T12:42:34;33.7;45.8
79356;SHT31;68825;51.978;5.654;2023-07-09T12:45:04;33.7;45.8
79356;SHT31;68825;51.978;5.654;2023-07-09T12:47:34;33.7;44.8
79356;SHT31;68825;51.978;5.654;2023-07-09T12:50:15;33.7;45.8
79356;SHT31;68825;51.978;5.654;2023-07-09T12:52:48;33.7;45.8
79356;SHT31;68825;51.978;5.654;2023-07-09T12:55:22;33.6;45.9
79356;SHT31;68825;51.978;5.654;2023-07-09T12:57:51;33.6;46.5
79356;SHT31;68825;51.978;5.654;2023-07-09T13:00:21;33.6;46.9
79356;SHT31;68825;51.978;5.654;2023-07-09T13:02:54;33.6;44.4
79356;SHT31;68825;51.978;5.654;2023-07-09T13:05:25;33.6;47.2
79356;SHT31;68825;51.978;5.654;2023-07-09T13:07:58;33.6;46.0
79356;SHT31;68825;51.978;5.654;2023-07-09T13:10:29;33.6;46.7
79356;SHT31;68825;51.978;5.654;2023-07-09T13:13:02;33.6;45.4
79356;SHT31;68825;51.978;5.654;2023-07-09T13:15:42;33.6;50.3
79356;SHT31;68825;51.978;5.654;2023-07-09T13:18:13;33.6;47.4
79356;SHT31;68825;51.978;5.654;2023-07-09T13:20:44;33.6;47.0
79356;SHT31;68825;51.978;5.654;2023-07-09T13:23:16;33.6;46.6
79356;SHT31;68825;51.978;5.654;2023-07-09T13:25:46;33.5;47.1
79356;SHT31;68825;51.978;5.654;2023-07-09T13:28:21;33.5;47.8
79356;SHT31;68825;51.978;5.654;2023-07-09T13:30:58;33.4;49.0
79356;SHT31;68825;51.978;5.654;2023-07-09T13:33:27;33.4;49.9
79356;SHT31;68825;51.978;5.654;2023-07-09T13:35:58;33.3;50.3
79356;SHT31;68825;51.978;5.654;2023-07-09T13:38:27;33.2;48.6
79356;SHT31;68825;51.978;5.654;2023-07-09T13:40:59;33.2;47.1
79356;SHT31;68825;51.978;5.654;2023-07-09T13:43:30;33.0;47.4
79356;SHT31;68825;51.978;5.654;2023-07-09T13:46:01;32.9;47.2
79356;SHT31;68825;51.978;5.654;2023-07-09T13:48:33;32.7;47.5
79356;SHT31;68825;51.978;5.654;2023-07-09T13:51:15;32.6;48.2
79356;SHT31;68825;51.978;5.654;2023-07-09T13:53:48;32.4;46.6
79356;SHT31;68825;51.978;5.654;2023-07-09T13:56:18;32.2;45.5
79356;SHT31;68825;51.978;5.654;2023-07-09T13:58:47;32.1;45.6
79356;SHT31;68825;51.978;5.654;2023-07-09T14:01:21;31.9;45.8
79356;SHT31;68825;51.978;5.654;2023-07-09T14:03:57;31.7;46.9
79356;SHT31;68825;51.978;5.654;2023-07-09T14:06:27;31.5;47.0
79356;SHT31;68825;51.978;5.654;2023-07-09T14:08:55;31.4;47.2
79356;SHT31;68825;51.978;5.654;2023-07-09T14:11:27;31.2;47.5
79356;SHT31;68825;51.978;5.654;2023-07-09T14:13:56;31.1;48.2
79356;SHT31;68825;51.978;5.654;2023-07-09T14:16:26;31.0;48.5
79356;SHT31;68825;51.978;5.654;2023-07-09T14:18:55;30.9;48.0
79356;SHT31;68825;51.978;5.654;2023-07-09T14:21:26;30.8;48.5
79356;SHT31;68825;51.978;5.654;2023-07-09T14:23:57;30.7;48.3
79356;SHT31;68825;51.978;5.654;2023-07-09T14:26:26;30.6;47.8
79356;SHT31;68825;51.978;5.654;2023-07-09T14:28:57;30.5;47.3
79356;SHT31;68825;51.978;5.654;2023-07-09T14:31:28;30.4;47.2
79356;SHT31;68825;51.978;5.654;2023-07-09T14:34:13;30.3;47.5
79356;SHT31;68825;51.978;5.654;2023-07-09T14:36:43;30.2;48.6
79356;SHT31;68825;51.978;5.654;2023-07-09T14:39:11;30.1;48.2
79356;SHT31;68825;51.978;5.654;2023-07-09T14:41:41;30.0;52.3
79356;SHT31;68825;51.978;5.654;2023-07-09T14:44:21;29.9;50.1
79356;SHT31;68825;51.978;5.654;2023-07-09T14:46:51;29.8;50.5
79356;SHT31;68825;51.978;5.654;2023-07-09T14:49:22;29.7;51.8
79356;SHT31;68825;51.978;5.654;2023-07-09T14:51:52;29.5;53.0
79356;SHT31;68825;51.978;5.654;2023-07-09T14:54:24;29.2;57.8
79356;SHT31;68825;51.978;5.654;2023-07-09T14:56:54;28.4;62.8
79356;SHT31;68825;51.978;5.654;2023-07-09T14:59:24;26.9;69.0
79356;SHT31;68825;51.978;5.654;2023-07-09T15:01:53;26.2;71.1
79356;SHT31;68825;51.978;5.654;2023-07-09T15:04:27;25.9;73.6
79356;SHT31;68825;51.978;5.654;2023-07-09T15:06:57;25.7;72.7
79356;SHT31;68825;51.978;5.654;2023-07-09T15:09:28;25.6;73.4
79356;SHT31;68825;51.978;5.654;2023-07-09T15:11:58;25.5;72.4
79356;SHT31;68825;51.978;5.654;2023-07-09T15:14:30;25.4;73.4
79356;SHT31;68825;51.978;5.654;2023-07-09T15:16:58;25.3;73.0
79356;SHT31;68825;51.978;5.654;2023-07-09T15:19:27;25.2;73.9
79356;SHT31;68825;51.978;5.654;2023-07-09T15:21:56;25.1;73.9
79356;SHT31;68825;51.978;5.654;2023-07-09T15:24:28;25.1;74.2
79356;SHT31;68825;51.978;5.654;2023-07-09T15:26:58;25.1;74.7
79356;SHT31;68825;51.978;5.654;2023-07-09T15:29:28;25.1;74.5
79356;SHT31;68825;51.978;5.654;2023-07-09T15:31:58;25.1;75.6
79356;SHT31;68825;51.978;5.654;2023-07-09T15:34:26;25.2;74.8
79356;SHT31;68825;51.978;5.654;2023-07-09T15:36:55;25.2;72.9
79356;SHT31;68825;51.978;5.654;2023-07-09T15:39:24;25.3;73.2
79356;SHT31;68825;51.978;5.654;2023-07-09T15:41:52;25.3;73.8
79356;SHT31;68825;51.978;5.654;2023-07-09T15:44:21;25.3;73.2
79356;SHT31;68825;51.978;5.654;2023-07-09T15:46:52;25.4;72.4
79356;SHT31;68825;51.978;5.654;2023-07-09T15:49:23;25.4;71.7
79356;SHT31;68825;51.978;5.654;2023-07-09T15:51:51;25.5;72.4
79356;SHT31;68825;51.978;5.654;2023-07-09T15:54:23;25.5;72.5
79356;SHT31;68825;51.978;5.654;2023-07-09T15:56:53;25.6;73.6
79356;SHT31;68825;51.978;5.654;2023-07-09T15:59:28;25.7;73.0
79356;SHT31;68825;51.978;5.654;2023-07-09T16:01:59;25.7;72.7
79356;SHT31;68825;51.978;5.654;2023-07-09T16:04:28;25.8;72.9
79356;SHT31;68825;51.978;5.654;2023-07-09T16:06:57;25.9;71.7
79356;SHT31;68825;51.978;5.654;2023-07-09T16:09:27;25.9;72.3
79356;SHT31;68825;51.978;5.654;2023-07-09T16:11:55;26.0;71.2
79356;SHT31;68825;51.978;5.654;2023-07-09T16:14:27;26.1;70.3
79356;SHT31;68825;51.978;5.654;2023-07-09T16:16:57;26.1;70.6
79356;SHT31;68825;51.978;5.654;2023-07-09T16:19:30;26.1;69.8
79356;SHT31;68825;51.978;5.654;2023-07-09T16:22:02;26.2;69.7
79356;SHT31;68825;51.978;5.654;2023-07-09T16:24:33;26.2;70.6
79356;SHT31;68825;51.978;5.654;2023-07-09T16:27:04;26.2;69.4
79356;SHT31;68825;51.978;5.654;2023-07-09T16:29:34;26.3;70.5